Time;durP1;ratioP1;P1;durP2;ratioP2;P2;SDS_P1;SDS_P2;PMS_P1;PMS_P2;Temp;Humidity;BMP_temperature;BMP_pressure;BME280_temperature;BME280_humidity;BME280_pressure;Samples;Min_cycle;Max_cycle;Signal;HPM_P1;HPM_P2
2021/04/26 00:06:45;;;;;;;7.32;2.70;;;10.40;80.50;;;;;;20846661;28;20036;-78
2021/04/26 00:16:46;;;;;;;6.03;2.40;;;10.30;80.50;;;;;;20827902;28;20033;-78
2021/04/26 00:26:46;;;;;;;5.38;2.65;;;10.30;80.40;;;;;;20844789;28;20037;-77
2021/04/26 00:36:47;;;;;;;4.50;2.47;;;9.90;83.00;;;;;;20843554;28;20462;-78
2021/04/26 00:46:48;;;;;;;7.20;2.97;;;10.00;82.20;;;;;;20842948;28;20033;-78
2021/04/26 00:56:49;;;;;;;5.05;2.47;;;10.00;82.40;;;;;;20807479;28;20025;-78
2021/04/26 01:06:50;;;;;;;7.53;2.60;;;9.90;82.00;;;;;;20805517;28;20055;-77
2021/04/26 01:17:07;;;;;;;;;;;9.80;82.30;;;;;;20838967;28;20080;-78
2021/04/26 01:27:27;;;;;;;9.50;2.95;;;9.70;81.70;;;;;;20841769;28;19913;-78
2021/04/26 01:37:32;;;;;;;7.47;2.72;;;9.70;82.00;;;;;;20836721;28;20527;-78
2021/04/26 01:47:35;;;;;;;7.20;2.92;;;9.70;82.20;;;;;;20819659;28;20128;-78
2021/04/26 01:57:37;;;;;;;5.30;2.72;;;9.50;83.30;;;;;;20819045;28;20025;-77
2021/04/26 02:07:43;;;;;;;6.40;2.50;;;9.30;84.60;;;;;;20818429;28;20437;-77
2021/04/26 02:17:53;;;;;;;5.43;2.63;;;9.10;84.80;;;;;;20821113;28;20029;-77
2021/04/26 02:27:54;;;;;;;5.55;2.83;;;8.90;86.50;;;;;;20817828;28;20366;-80
2021/04/26 02:37:59;;;;;;;5.25;2.67;;;8.70;86.70;;;;;;20846837;28;20029;-79
2021/04/26 02:48:03;;;;;;;9.30;2.53;;;8.80;85.70;;;;;;20829568;28;20034;-79
2021/04/26 02:58:10;;;;;;;6.40;2.65;;;8.70;86.80;;;;;;20828272;28;20033;-79
2021/04/26 03:08:11;;;;;;;3.50;2.33;;;8.50;87.00;;;;;;20894987;23;20044;-84
2021/04/26 03:18:14;;;;;;;5.22;2.53;;;8.50;87.90;;;;;;20922703;28;20033;-84
2021/04/26 03:28:18;;;;;;;5.97;2.70;;;8.40;89.60;;;;;;20921520;28;20083;-84
2021/04/26 03:38:20;;;;;;;4.07;2.28;;;8.20;90.00;;;;;;20921216;28;20056;-85
2021/04/26 03:48:22;;;;;;;6.95;2.55;;;8.20;90.00;;;;;;20903456;28;20121;-85
2021/04/26 03:58:37;;;;;;;5.35;2.45;;;8.00;90.80;;;;;;20904637;28;20097;-86
2021/04/26 04:08:39;;;;;;;8.32;2.88;;;7.90;91.00;;;;;;20900146;28;20505;-85
2021/04/26 04:19:00;;;;;;;6.25;2.63;;;7.50;92.40;;;;;;20916935;28;20037;-85
2021/04/26 04:29:06;;;;;;;4.57;2.40;;;7.30;93.30;;;;;;20916613;28;20035;-85
2021/04/26 04:39:30;;;;;;;4.32;2.70;;;7.40;93.30;;;;;;20914595;28;20029;-87
2021/04/26 04:50:04;;;;;;;6.07;2.85;;;7.30;94.10;;;;;;20870345;28;20043;-85
2021/04/26 05:00:07;;;;;;;4.72;2.53;;;7.40;94.10;;;;;;20895606;28;20451;-85
2021/04/26 05:10:28;;;;;;;7.63;2.70;;;7.50;94.40;;;;;;20881604;28;20504;-85
2021/04/26 05:21:04;;;;;;;4.13;2.38;;;7.60;95.30;;;;;;20779196;28;20248;-85
2021/04/26 05:31:06;;;;;;;8.43;2.63;;;8.10;93.80;;;;;;20874073;28;20025;-84
2021/04/26 05:41:07;;;;;;;10.23;3.10;;;8.10;95.10;;;;;;20934543;28;20127;-85
2021/04/26 05:51:08;;;;;;;15.67;3.23;;;8.20;95.40;;;;;;20975364;28;20035;-85
2021/04/26 06:01:09;;;;;;;8.47;2.63;;;8.50;95.30;;;;;;21009160;28;20025;-85
2021/04/26 06:11:10;;;;;;;6.03;2.83;;;8.60;96.60;;;;;;20993119;28;20038;-84
2021/04/26 06:21:11;;;;;;;7.87;3.27;;;9.30;94.20;;;;;;21009237;28;20036;-84
2021/04/26 06:31:13;;;;;;;6.17;3.13;;;9.20;94.50;;;;;;21010849;28;20035;-84
2021/04/26 06:41:14;;;;;;;5.47;2.95;;;9.30;94.20;;;;;;20995648;28;20201;-84
2021/04/26 06:51:15;;;;;;;7.22;2.90;;;9.60;93.40;;;;;;20927298;28;20033;-83
2021/04/26 07:01:16;;;;;;;9.10;3.33;;;9.80;93.90;;;;;;20906550;28;20025;-84
2021/04/26 07:11:17;;;;;;;9.43;2.83;;;10.00;93.70;;;;;;20922535;28;20182;-85
2021/04/26 07:21:17;;;;;;;7.40;3.05;;;9.70;94.90;;;;;;20923305;28;20032;-85
2021/04/26 07:31:19;;;;;;;8.02;3.60;;;11.40;92.80;;;;;;20906339;28;20044;-84
2021/04/26 07:41:20;;;;;;;6.80;3.40;;;11.70;92.90;;;;;;20924265;28;20040;-83
2021/04/26 07:51:21;;;;;;;11.32;3.28;;;12.60;89.10;;;;;;20924467;28;20029;-83
2021/04/26 08:01:22;;;;;;;8.45;3.20;;;12.70;86.90;;;;;;20908531;28;20068;-83
2021/04/26 08:11:22;;;;;;;8.32;3.38;;;13.40;85.20;;;;;;20922991;28;20029;-84
2021/04/26 08:21:24;;;;;;;11.90;4.10;;;14.30;83.00;;;;;;20920866;28;20118;-83
2021/04/26 08:31:24;;;;;;;5.87;3.57;;;13.50;85.10;;;;;;20920098;28;20028;-83
2021/04/26 08:41:26;;;;;;;8.98;3.65;;;14.30;86.30;;;;;;20904335;28;20037;-83
2021/04/26 08:51:30;;;;;;;6.43;3.33;;;15.10;84.50;;;;;;20922283;28;20025;-83
2021/04/26 09:01:31;;;;;;;10.90;3.67;;;14.50;82.10;;;;;;20905180;28;20509;-82
2021/04/26 09:11:32;;;;;;;8.75;4.00;;;14.30;83.70;;;;;;20929667;28;20548;-84
2021/04/26 09:21:38;;;;;;;10.75;3.92;;;14.90;82.20;;;;;;20910756;28;20593;-84
2021/04/26 09:31:39;;;;;;;7.38;3.88;;;14.80;82.60;;;;;;20908893;28;20029;-85
2021/04/26 09:41:44;;;;;;;13.10;5.70;;;15.60;88.00;;;;;;20919526;28;20375;-85
2021/04/26 09:51:48;;;;;;;8.98;4.15;;;16.20;79.20;;;;;;20924492;28;20037;-85
2021/04/26 10:01:49;;;;;;;10.93;4.55;;;17.00;80.70;;;;;;20908050;28;20179;-84
2021/04/26 10:11:50;;;;;;;8.35;4.20;;;17.50;76.50;;;;;;20919978;28;20025;-85
2021/04/26 10:21:56;;;;;;;11.40;4.73;;;18.10;79.30;;;;;;20898427;28;20518;-87
2021/04/26 10:32:00;;;;;;;13.88;3.85;;;18.10;79.70;;;;;;20903589;28;20036;-83
2021/04/26 10:42:07;;;;;;;8.85;4.57;;;19.10;80.00;;;;;;20908897;28;20528;-85
2021/04/26 10:52:28;;;;;;;9.75;4.28;;;19.40;72.10;;;;;;20911715;28;20033;-84
2021/04/26 11:02:31;;;;;;;10.82;5.03;;;19.30;71.90;;;;;;20919688;28;20036;-85
2021/04/26 11:12:33;;;;;;;12.32;4.82;;;19.70;69.10;;;;;;20924940;28;20029;-84
2021/04/26 11:22:34;;;;;;;7.05;4.18;;;18.80;70.70;;;;;;20907559;28;20035;-82
2021/04/26 11:32:55;;;;;;;16.92;4.25;;;20.30;66.00;;;;;;20921709;28;20251;-82
2021/04/26 11:43:07;;;;;;;8.05;4.00;;;20.50;62.20;;;;;;20907913;28;20036;-83
2021/04/26 11:53:08;;;;;;;7.10;4.05;;;20.50;64.90;;;;;;20921757;28;20037;-82
2021/04/26 12:03:09;;;;;;;8.93;4.60;;;20.70;61.30;;;;;;20922185;28;20060;-83
2021/04/26 12:13:10;;;;;;;9.90;4.40;;;20.80;61.80;;;;;;20904195;28;20378;-82
2021/04/26 12:23:19;;;;;;;8.70;3.87;;;19.80;64.90;;;;;;20918582;28;20456;-84
2021/04/26 12:33:25;;;;;;;9.30;4.18;;;21.10;63.00;;;;;;20903087;28;20136;-84
2021/04/26 12:43:43;;;;;;;6.75;3.50;;;20.80;60.20;;;;;;20917274;28;20580;-86
2021/04/26 12:53:43;;;;;;;9.13;3.88;;;21.10;60.50;;;;;;20900398;28;20115;-84
2021/04/26 13:03:51;;;;;;;6.27;3.67;;;21.00;59.10;;;;;;20916325;28;20106;-84
2021/04/26 13:13:54;;;;;;;9.50;3.90;;;20.20;62.70;;;;;;20897727;28;20040;-83
2021/04/26 13:23:56;;;;;;;9.23;3.90;;;20.40;63.40;;;;;;20916018;28;20095;-82
2021/04/26 13:33:57;;;;;;;7.47;4.47;;;21.20;64.20;;;;;;20915177;28;20033;-81
2021/04/26 13:43:57;;;;;;;16.17;5.90;;;20.60;66.00;;;;;;20916986;28;20548;-83
2021/04/26 13:53:58;;;;;;;9.60;4.80;;;20.20;65.30;;;;;;20897133;28;20095;-85
2021/04/26 14:03:59;;;;;;;14.37;4.87;;;21.30;63.30;;;;;;20913264;28;20060;-83
2021/04/26 14:14:02;;;;;;;8.93;4.33;;;20.90;63.60;;;;;;20916012;28;20123;-83
2021/04/26 14:24:03;;;;;;;16.40;5.78;;;21.70;60.10;;;;;;20909928;28;20029;-83
2021/04/26 14:34:05;;;;;;;45.03;6.17;;;21.70;60.20;;;;;;20925883;28;20029;-82
2021/04/26 14:44:06;;;;;;;10.43;3.50;;;21.10;61.20;;;;;;20908654;28;20408;-83
2021/04/26 14:54:07;;;;;;;9.07;4.00;;;21.20;58.40;;;;;;20923397;28;20041;-82
2021/04/26 15:04:09;;;;;;;5.63;3.67;;;21.40;59.80;;;;;;20922427;28;20079;-81
2021/04/26 15:14:09;;;;;;;7.33;3.63;;;20.80;59.20;;;;;;20972085;22;20833;-78
2021/04/26 15:24:12;;;;;;;14.03;4.43;;;20.50;58.60;;;;;;20944579;28;20058;-79
2021/04/26 15:34:13;;;;;;;7.85;3.15;;;20.30;57.90;;;;;;20970708;28;20104;-78
2021/04/26 15:44:14;;;;;;;6.17;3.40;;;20.80;55.80;;;;;;20967719;28;20044;-78
2021/04/26 15:54:15;;;;;;;9.77;3.38;;;20.40;58.10;;;;;;20928569;28;20029;-78
2021/04/26 16:04:15;;;;;;;6.78;3.72;;;19.20;57.60;;;;;;20937772;28;20112;-78
2021/04/26 16:14:16;;;;;;;5.70;3.17;;;19.50;57.80;;;;;;20902090;28;20384;-78
2021/04/26 16:24:17;;;;;;;17.97;3.23;;;19.20;57.50;;;;;;20892871;28;20039;-78
2021/04/26 16:34:19;;;;;;;6.83;2.97;;;18.70;57.90;;;;;;20905679;28;20123;-78
2021/04/26 16:44:20;;;;;;;7.15;3.10;;;18.10;58.30;;;;;;20905167;28;20567;-79
2021/04/26 16:54:21;;;;;;;5.30;3.03;;;18.50;57.00;;;;;;20900745;28;20047;-79
2021/04/26 17:04:22;;;;;;;6.03;3.28;;;18.00;58.10;;;;;;20905161;28;20041;-77
2021/04/26 17:14:23;;;;;;;5.35;3.08;;;17.50;59.60;;;;;;20901226;28;20506;-78
2021/04/26 17:24:26;;;;;;;4.93;3.33;;;17.30;60.90;;;;;;20915123;28;20029;-79
2021/04/26 17:34:27;;;;;;;8.77;3.53;;;17.30;60.60;;;;;;20913473;28;20052;-78
2021/04/26 17:44:28;;;;;;;6.35;3.70;;;16.80;63.00;;;;;;20919528;28;20033;-78
2021/04/26 17:54:30;;;;;;;11.23;3.45;;;16.50;65.10;;;;;;20898157;28;20029;-79
2021/04/26 18:04:31;;;;;;;7.68;3.40;;;16.20;64.30;;;;;;20926293;28;20449;-77
2021/04/26 18:14:32;;;;;;;13.40;3.03;;;15.70;65.50;;;;;;20942866;28;20036;-77
2021/04/26 18:24:33;;;;;;;6.13;3.17;;;15.40;66.70;;;;;;20935715;28;20059;-78
2021/04/26 18:34:34;;;;;;;5.30;3.15;;;14.80;70.10;;;;;;20924689;28;20041;-78
2021/04/26 18:44:34;;;;;;;8.68;3.65;;;14.10;73.20;;;;;;20940661;28;20033;-77
2021/04/26 18:54:35;;;;;;;5.88;3.08;;;13.60;74.50;;;;;;20944634;28;20033;-78
2021/04/26 19:04:38;;;;;;;10.45;4.40;;;12.90;77.40;;;;;;20912550;28;20128;-78
2021/04/26 19:14:42;;;;;;;8.18;3.92;;;12.50;77.90;;;;;;20908504;28;20159;-78
2021/04/26 19:24:43;;;;;;;8.02;3.92;;;12.20;79.80;;;;;;20929409;28;20507;-77
2021/04/26 19:34:43;;;;;;;10.32;3.95;;;11.90;81.10;;;;;;20886387;28;20033;-78
2021/04/26 19:44:44;;;;;;;8.50;4.22;;;11.50;82.20;;;;;;20903699;28;20035;-78
2021/04/26 19:54:45;;;;;;;6.78;3.80;;;11.20;84.50;;;;;;20901233;28;20076;-77
2021/04/26 20:04:47;;;;;;;8.45;4.05;;;10.80;85.50;;;;;;20894318;28;20029;-77
2021/04/26 20:14:51;;;;;;;11.63;4.40;;;10.60;87.90;;;;;;20902453;28;20060;-76
2021/04/26 20:24:52;;;;;;;5.82;3.78;;;10.40;87.80;;;;;;20909736;28;20059;-77
2021/04/26 20:34:53;;;;;;;14.60;4.38;;;10.60;85.70;;;;;;20925552;28;20037;-75
2021/04/26 20:44:54;;;;;;;9.07;4.70;;;10.30;87.30;;;;;;20927086;28;20191;-77
2021/04/26 20:54:55;;;;;;;9.45;3.95;;;10.30;86.00;;;;;;20926474;28;20052;-77
2021/04/26 21:04:55;;;;;;;6.78;4.47;;;10.20;86.20;;;;;;20919684;28;20033;-77
2021/04/26 21:14:56;;;;;;;11.73;4.40;;;10.00;86.10;;;;;;20998892;22;20429;-75
2021/04/26 21:24:57;;;;;;;9.52;4.47;;;10.00;86.30;;;;;;20971375;28;20039;-75
2021/04/26 21:34:58;;;;;;;12.48;4.63;;;10.20;84.40;;;;;;20924298;28;20033;-75
2021/04/26 21:44:59;;;;;;;8.25;4.43;;;10.20;84.80;;;;;;20906857;28;20487;-75
2021/04/26 21:55:03;;;;;;;6.70;4.37;;;9.70;87.10;;;;;;20905383;28;20037;-75
2021/04/26 22:05:05;;;;;;;7.07;4.30;;;9.40;87.40;;;;;;20905786;28;20029;-75
2021/04/26 22:15:08;;;;;;;14.15;4.68;;;9.40;87.30;;;;;;20905512;28;20041;-75
2021/04/26 22:25:11;;;;;;;7.20;4.65;;;9.20;87.60;;;;;;20903995;28;20037;-75
2021/04/26 22:35:14;;;;;;;9.18;4.53;;;9.10;87.70;;;;;;20909677;28;20495;-75
2021/04/26 22:45:17;;;;;;;12.18;4.38;;;9.20;86.30;;;;;;20920674;28;20047;-75
2021/04/26 22:55:22;;;;;;;10.23;4.85;;;9.00;86.90;;;;;;20918592;28;20040;-75
2021/04/26 23:05:23;;;;;;;9.60;4.20;;;9.30;85.20;;;;;;20919079;28;20128;-75
2021/04/26 23:15:24;;;;;;;8.13;4.10;;;9.10;85.90;;;;;;20916256;28;20055;-76
2021/04/26 23:25:25;;;;;;;7.93;4.17;;;9.10;85.70;;;;;;20917055;28;20040;-75
2021/04/26 23:35:26;;;;;;;12.10;3.87;;;9.10;85.30;;;;;;20916607;28;20395;-76
2021/04/26 23:45:26;;;;;;;9.48;3.97;;;9.10;84.10;;;;;;20915429;28;20029;-76
2021/04/26 23:55:27;;;;;;;9.55;4.85;;;9.10;83.90;;;;;;20914786;28;20033;-75
